createdAt,value
2018-07-04T08:28:53.598Z,46.50
2018-07-04T08:31:33.529Z,46.50
2018-07-04T08:34:13.519Z,46.50
2018-07-04T08:36:53.346Z,46.60
2018-07-04T08:39:33.223Z,46.50
2018-07-04T08:42:13.063Z,46.30
2018-07-04T08:44:53.024Z,46.80
2018-07-04T08:47:33.078Z,46.60
2018-07-04T08:50:13.212Z,46.60
2018-07-04T08:52:53.264Z,46.30
2018-07-04T08:55:33.451Z,45.70
2018-07-04T08:58:13.469Z,44.80
2018-07-04T09:00:53.211Z,45.70
2018-07-04T09:03:33.065Z,46.20
2018-07-04T09:06:13.131Z,47.00
2018-07-04T09:08:53.156Z,46.80
2018-07-04T09:11:33.338Z,47.40
2018-07-04T09:14:13.355Z,47.40
2018-07-04T09:16:53.348Z,47.00
2018-07-04T09:19:33.467Z,46.50
2018-07-04T09:22:15.192Z,46.80
2018-07-04T09:25:03.418Z,46.30
2018-07-04T09:31:19.355Z,45.80
2018-07-04T09:34:03.347Z,44.90
2018-07-04T09:40:01.156Z,45.20
2018-07-04T09:45:36.859Z,44.80
2018-07-04T09:48:20.889Z,43.70
2018-07-04T09:51:01.780Z,43.80
2018-07-04T09:53:48.335Z,43.90
2018-07-04T09:56:33.014Z,43.50
2018-07-04T09:59:15.419Z,43.50
2018-07-04T10:10:44.910Z,42.70
2018-07-04T10:13:25.343Z,43.30
2018-07-04T10:16:05.692Z,43.00
2018-07-04T10:18:47.005Z,43.20
2018-07-04T10:21:27.159Z,43.00
2018-07-04T10:27:31.022Z,42.60
2018-07-04T10:32:59.242Z,42.10
2018-07-04T10:35:39.084Z,42.30
2018-07-04T10:38:20.270Z,43.30
2018-07-04T10:41:00.240Z,41.60
2018-07-04T10:43:40.335Z,41.90
2018-07-04T10:46:20.796Z,40.60
2018-07-04T10:49:01.204Z,40.30
2018-07-04T10:51:41.124Z,41.50
2018-07-04T10:54:21.151Z,41.30
2018-07-04T10:57:01.216Z,41.30
2018-07-04T10:59:41.490Z,40.30
2018-07-04T11:02:21.371Z,40.90
2018-07-04T11:05:01.316Z,41.80
2018-07-04T11:07:42.669Z,39.80
2018-07-04T11:10:23.087Z,40.90
2018-07-04T11:13:04.415Z,40.80
2018-07-04T11:15:44.743Z,39.70
2018-07-04T11:18:25.265Z,40.30
2018-07-04T11:21:05.638Z,39.00
2018-07-04T11:23:45.752Z,38.90
2018-07-04T11:26:27.504Z,39.60
2018-07-04T11:29:07.585Z,40.30
2018-07-04T11:31:47.624Z,40.80
2018-07-04T11:34:27.675Z,40.80
2018-07-04T11:37:08.025Z,41.00
2018-07-04T11:39:48.224Z,40.60
2018-07-04T11:42:28.551Z,40.40
2018-07-04T11:45:08.738Z,40.80
2018-07-04T11:47:37.571Z,40.10
2018-07-04T11:50:05.433Z,40.80
2018-07-04T11:52:33.126Z,40.30
2018-07-04T11:55:00.933Z,39.70
2018-07-04T11:57:28.587Z,40.10
2018-07-04T11:59:57.849Z,39.40
2018-07-04T12:02:25.482Z,40.20
2018-07-04T12:05:05.477Z,40.10
2018-07-04T12:07:33.487Z,40.20
2018-07-04T12:10:01.144Z,41.20
2018-07-04T12:12:28.820Z,40.30
2018-07-04T12:14:56.458Z,40.50
2018-07-04T12:17:24.119Z,40.10
2018-07-04T12:19:51.779Z,39.90
2018-07-04T12:22:19.405Z,39.90
2018-07-04T12:24:47.170Z,40.00
2018-07-04T12:27:14.864Z,41.70
2018-07-04T12:29:42.500Z,39.70
2018-07-04T12:32:10.319Z,40.70
2018-07-04T12:34:38.039Z,39.90
2018-07-04T12:37:05.723Z,39.40
2018-07-04T12:39:33.471Z,39.90
2018-07-04T12:42:01.184Z,39.90
2018-07-04T12:44:28.876Z,40.50
2018-07-04T12:46:56.604Z,40.10
2018-07-04T12:49:25.400Z,40.00
2018-07-04T12:51:53.283Z,40.10
2018-07-04T12:54:26.281Z,39.60
2018-07-04T12:57:06.620Z,39.50
2018-07-04T12:59:46.730Z,39.20
2018-07-04T13:02:27.666Z,39.10
2018-07-04T13:05:08.756Z,39.00
2018-07-04T13:07:48.867Z,39.80
2018-07-04T13:10:29.188Z,39.70
2018-07-04T13:15:43.755Z,39.40
2018-07-04T13:18:23.972Z,39.30
2018-07-04T13:21:03.993Z,38.50
2018-07-04T13:23:44.364Z,39.20
2018-07-04T13:26:24.845Z,38.70
2018-07-04T13:29:04.888Z,39.80
2018-07-04T13:31:46.433Z,39.60
2018-07-04T13:34:27.455Z,39.60
2018-07-04T13:37:08.349Z,39.60
2018-07-04T13:39:48.447Z,38.80
2018-07-04T13:42:28.640Z,39.50
2018-07-04T13:45:10.478Z,36.30
2018-07-04T13:47:55.944Z,32.90
2018-07-04T13:50:36.049Z,30.10
2018-07-04T13:53:16.166Z,28.00
2018-07-04T13:58:40.999Z,26.20
2018-07-04T14:01:21.051Z,26.00
2018-07-04T14:04:02.339Z,25.70
2018-07-04T14:06:46.976Z,23.70
2018-07-04T14:09:26.879Z,22.90
2018-07-04T14:12:06.891Z,22.40
2018-07-04T14:14:46.959Z,21.90
2018-07-04T14:17:26.932Z,22.80
2018-07-04T14:20:06.868Z,21.70
2018-07-04T14:22:46.770Z,21.90
2018-07-04T14:25:26.947Z,21.80
2018-07-04T14:28:07.196Z,20.80
2018-07-04T14:30:47.217Z,20.00
2018-07-04T14:33:27.437Z,20.00
2018-07-04T14:38:41.499Z,21.10
2018-07-04T14:41:21.656Z,20.80
2018-07-04T14:44:01.657Z,21.50
2018-07-04T14:46:41.546Z,20.60
2018-07-04T14:49:21.812Z,20.20
2018-07-04T14:52:01.793Z,19.30
2018-07-04T14:54:42.067Z,18.90
2018-07-04T14:57:22.132Z,18.20
2018-07-04T15:00:02.302Z,18.20
2018-07-04T15:02:42.389Z,18.30
2018-07-04T15:05:22.439Z,18.20
2018-07-04T15:08:02.865Z,18.60
2018-07-04T15:10:42.892Z,17.90
2018-07-04T15:13:22.844Z,18.70
2018-07-04T15:16:03.493Z,18.10
2018-07-04T15:18:43.601Z,17.50
2018-07-04T15:21:23.710Z,17.40
2018-07-04T15:24:03.876Z,17.50
2018-07-04T15:26:44.229Z,17.50
2018-07-04T15:29:24.244Z,18.30
2018-07-04T15:32:04.367Z,18.70
2018-07-04T15:34:44.623Z,19.30
2018-07-04T15:37:24.628Z,18.00
2018-07-04T15:40:04.688Z,17.80
2018-07-04T15:42:44.763Z,17.50
2018-07-04T15:45:24.736Z,17.30
2018-07-04T15:48:04.770Z,17.40
2018-07-04T15:53:18.673Z,16.90
2018-07-04T15:55:58.826Z,17.50
2018-07-04T15:58:38.941Z,16.80
2018-07-04T16:01:18.955Z,16.70
2018-07-04T16:03:59.011Z,16.40
2018-07-04T16:06:39.134Z,16.70
2018-07-04T16:09:19.211Z,19.00
2018-07-04T16:12:06.010Z,19.90
2018-07-04T16:14:48.766Z,21.30
2018-07-04T16:17:36.730Z,24.30
2018-07-04T16:20:19.620Z,27.00
2018-07-04T16:22:59.525Z,28.40
2018-07-04T16:25:39.448Z,28.90
2018-07-04T16:28:19.562Z,29.80
2018-07-04T16:30:59.690Z,31.60
2018-07-04T16:33:39.930Z,32.70
2018-07-04T16:36:19.989Z,34.00
2018-07-04T16:39:00.036Z,34.00
2018-07-04T16:41:40.293Z,34.20
2018-07-04T16:44:21.065Z,35.00
2018-07-04T16:47:01.116Z,36.10
2018-07-04T16:49:41.567Z,36.00
2018-07-04T16:52:22.548Z,38.00
2018-07-04T16:55:02.561Z,38.10
2018-07-04T16:57:42.767Z,39.10
2018-07-04T17:00:22.820Z,39.40
2018-07-04T17:03:03.021Z,40.40
2018-07-04T17:05:43.284Z,39.60
2018-07-04T17:08:23.391Z,40.40
2018-07-04T17:11:03.793Z,42.20
2018-07-04T17:13:43.791Z,42.10
2018-07-04T17:16:23.871Z,41.20
2018-07-04T17:19:04.031Z,42.60
2018-07-04T17:21:44.013Z,42.70
2018-07-04T17:24:25.272Z,41.90
2018-07-04T17:27:05.365Z,42.40
2018-07-04T17:29:45.466Z,41.80
2018-07-04T17:32:29.332Z,41.10
2018-07-04T17:35:09.656Z,43.00
2018-07-04T17:40:42.233Z,43.60
2018-07-04T17:43:22.311Z,43.10
2018-07-04T17:46:02.847Z,43.60
2018-07-04T17:59:22.385Z,44.70
2018-07-04T18:15:47.518Z,47.50
2018-07-04T18:18:28.531Z,47.70
2018-07-04T18:21:15.723Z,48.20
2018-07-04T18:23:59.836Z,48.60
2018-07-04T18:26:53.078Z,49.00
2018-07-04T18:29:35.330Z,48.80
2018-07-04T18:35:03.276Z,48.90
2018-07-04T18:37:51.439Z,49.30
2018-07-04T18:43:20.483Z,49.80
2018-07-04T18:48:59.729Z,50.10
